Time;durP1;ratioP1;P1;durP2;ratioP2;P2;SDS_P1;SDS_P2;PMS_P1;PMS_P2;Temp;Humidity;BMP_temperature;BMP_pressure;BME280_temperature;BME280_humidity;BME280_pressure;Samples;Min_cycle;Max_cycle;Signal;HPM_P1;HPM_P2
2023/04/02 00:00:21;;;;;;;1.57;1.33;;;9.30;99.90;;;9.81;100.00;97250.75;4990968;28;20456;-78
2023/04/02 00:03:02;;;;;;;1.83;1.30;;;9.20;99.90;;;9.80;100.00;97249.13;4958712;28;20472;-78
2023/04/02 00:05:53;;;;;;;3.27;1.83;;;9.20;99.90;;;9.79;100.00;97258.78;4992760;28;20885;-78
2023/04/02 00:08:39;;;;;;;1.20;1.10;;;9.20;99.90;;;9.76;100.00;97246.13;4979594;28;20488;-78
2023/04/02 00:11:30;;;;;;;2.67;1.60;;;9.20;99.90;;;9.73;100.00;97254.34;4989235;28;20460;-78
2023/04/02 00:14:02;;;;;;;1.77;1.37;;;9.30;99.90;;;9.70;100.00;97254.75;4983912;28;20460;-78
2023/04/02 00:16:33;;;;;;;1.10;1.00;;;9.20;99.90;;;9.71;100.00;97260.78;4983982;28;20469;-78
2023/04/02 00:19:12;;;;;;;3.20;1.27;;;9.20;99.90;;;9.72;100.00;97260.56;4984022;28;20550;-78
2023/04/02 00:21:45;;;;;;;1.97;1.50;;;9.20;99.90;;;9.73;100.00;97264.00;4981332;28;20477;-78
2023/04/02 00:24:19;;;;;;;1.40;1.30;;;9.20;99.90;;;9.72;100.00;97267.63;4981735;28;20469;-78
2023/04/02 00:26:52;;;;;;;1.40;1.30;;;9.20;99.90;;;9.72;100.00;97262.41;4985286;28;20602;-78
2023/04/02 00:29:22;;;;;;;1.93;1.43;;;9.20;99.90;;;9.72;100.00;97271.00;4992803;28;20546;-78
2023/04/02 00:31:53;;;;;;;1.20;1.10;;;9.20;99.90;;;9.72;100.00;97272.84;4980448;28;20962;-78
2023/04/02 00:34:35;;;;;;;1.23;1.13;;;9.20;99.90;;;9.72;100.00;97275.47;4993172;28;20492;-78
2023/04/02 00:37:05;;;;;;;3.00;1.30;;;9.20;99.90;;;9.72;100.00;97273.63;4996860;28;20518;-78
2023/04/02 00:39:40;;;;;;;1.50;1.30;;;9.20;99.90;;;9.70;100.00;97280.06;4990907;28;20523;-78
2023/04/02 00:42:13;;;;;;;2.80;1.10;;;9.20;99.90;;;9.70;100.00;97278.25;4985606;28;20456;-78
2023/04/02 00:44:45;;;;;;;1.10;1.00;;;9.20;99.90;;;9.71;100.00;97276.44;4988715;28;20459;-78
2023/04/02 00:47:21;;;;;;;2.50;1.63;;;9.20;99.90;;;9.69;100.00;97271.41;4982596;28;20461;-78
2023/04/02 00:49:59;;;;;;;1.40;1.23;;;9.20;99.90;;;9.70;100.00;97274.84;4987334;28;20581;-78
2023/04/02 00:52:33;;;;;;;1.20;1.10;;;9.20;99.90;;;9.71;100.00;97285.09;4990410;28;21009;-78
2023/04/02 00:55:12;;;;;;;1.23;1.13;;;9.10;99.90;;;9.72;100.00;97275.47;4986258;28;20465;-78
2023/04/02 00:57:45;;;;;;;1.40;1.30;;;9.10;99.90;;;9.69;100.00;97276.63;4993065;28;20464;-78
2023/04/02 01:00:28;;;;;;;1.40;1.30;;;9.10;99.90;;;9.70;100.00;97280.06;4993162;28;20461;-78
2023/04/02 01:03:36;;;;;;;2.33;1.30;;;9.10;99.90;;;9.69;100.00;97276.63;4980622;28;21271;-78
2023/04/02 01:06:14;;;;;;;1.73;1.37;;;9.10;99.90;;;9.69;100.00;97279.25;4980997;28;20472;-78
2023/04/02 01:09:02;;;;;;;3.70;1.73;;;9.20;99.90;;;9.70;100.00;97280.88;4981180;28;20481;-78
2023/04/02 01:11:54;;;;;;;1.80;1.20;;;9.10;99.90;;;9.70;100.00;97280.88;4984089;28;20464;-79
2023/04/02 01:14:45;;;;;;;1.30;1.20;;;9.20;99.90;;;9.66;100.00;97284.88;4974284;28;20465;-77
2023/04/02 01:17:34;;;;;;;2.93;1.03;;;9.20;99.90;;;9.65;100.00;97277.25;4973388;28;20465;-77
2023/04/02 01:21:16;;;;;;;1.23;1.10;;;9.10;99.90;;;9.64;100.00;97278.25;4988471;28;20523;-78
2023/04/02 01:24:25;;;;;;;1.23;1.13;;;9.10;99.90;;;9.64;100.00;97281.69;4971337;28;20882;-78
2023/04/02 01:26:57;;;;;;;2.70;1.20;;;9.00;99.90;;;9.60;100.00;97283.88;4983791;28;20579;-78
2023/04/02 01:29:31;;;;;;;1.10;1.00;;;9.00;99.90;;;9.61;100.00;97285.47;4990917;28;20495;-78
2023/04/02 01:32:06;;;;;;;1.20;1.10;;;9.00;99.90;;;9.60;100.00;97286.50;4980880;28;20480;-78
2023/04/02 01:34:36;;;;;;;1.10;1.00;;;9.00;99.90;;;9.58;100.00;97291.09;4992268;28;20498;-78
2023/04/02 01:37:27;;;;;;;1.33;0.90;;;9.00;99.90;;;9.58;100.00;97298.09;4985284;28;20475;-78
2023/04/02 01:40:35;;;;;;;2.00;1.03;;;9.00;99.90;;;9.57;100.00;97304.34;4991800;28;21210;-78
2023/04/02 01:43:20;;;;;;;2.30;1.30;;;9.00;99.90;;;9.55;100.00;97303.72;4994707;28;20479;-78
2023/04/02 01:45:52;;;;;;;1.33;1.23;;;9.00;99.90;;;9.52;100.00;97301.53;5003996;28;20460;-78
2023/04/02 01:48:29;;;;;;;1.23;1.13;;;9.00;99.90;;;9.48;100.00;97298.50;4992650;28;20464;-78
2023/04/02 01:51:02;;;;;;;1.13;1.00;;;9.00;99.90;;;9.46;100.00;97304.94;4995967;28;21009;-78
2023/04/02 01:53:32;;;;;;;2.67;1.27;;;9.00;99.90;;;9.45;100.00;97304.13;4987495;28;20476;-78
2023/04/02 01:56:06;;;;;;;2.53;1.27;;;8.90;99.90;;;9.39;100.00;97310.13;4992184;28;20464;-78
2023/04/02 01:58:36;;;;;;;1.67;1.00;;;8.90;99.90;;;9.37;100.00;97309.50;4984052;28;20464;-78
2023/04/02 02:01:15;;;;;;;1.20;1.10;;;8.90;99.90;;;9.36;100.00;97310.53;4993938;28;20551;-78
2023/04/02 02:03:45;;;;;;;1.47;1.30;;;8.90;99.90;;;9.34;100.00;97309.91;4991712;28;20993;-78
2023/04/02 02:06:18;;;;;;;1.00;0.90;;;8.90;99.90;;;9.36;100.00;97320.97;4986739;28;20464;-78
2023/04/02 02:08:51;;;;;;;0.80;0.80;;;8.80;99.90;;;9.35;100.00;97313.34;4989372;28;20456;-78
2023/04/02 02:11:24;;;;;;;1.20;0.90;;;8.80;99.90;;;9.35;100.00;97321.16;4979014;28;20480;-78
2023/04/02 02:13:59;;;;;;;1.20;1.03;;;8.80;99.90;;;9.33;100.00;97316.16;4986473;28;20562;-78
2023/04/02 02:16:30;;;;;;;2.00;1.23;;;8.80;99.90;;;9.29;100.00;97322.75;4985510;28;20504;-78
2023/04/02 02:19:04;;;;;;;1.63;0.90;;;8.80;99.90;;;9.27;100.00;97322.13;4986522;28;20464;-78
2023/04/02 02:21:41;;;;;;;1.13;1.03;;;8.80;99.90;;;9.26;100.00;97336.19;4976169;28;20510;-78
2023/04/02 02:24:21;;;;;;;1.10;1.00;;;8.80;99.90;;;9.27;100.00;97332.56;4980424;28;20451;-78
2023/04/02 02:27:05;;;;;;;0.87;0.87;;;8.80;99.90;;;9.29;100.00;97337.59;4986925;28;20598;-78
2023/04/02 02:29:41;;;;;;;1.10;1.00;;;8.80;99.90;;;9.26;100.00;97336.19;4985325;28;21034;-78
2023/04/02 02:32:17;;;;;;;0.97;0.90;;;8.80;99.90;;;9.25;100.00;97339.00;4991794;28;20468;-78
2023/04/02 02:34:54;;;;;;;1.20;1.10;;;8.80;99.90;;;9.20;100.00;97336.19;4984242;28;20456;-77
2023/04/02 02:37:29;;;;;;;1.10;1.00;;;8.80;99.90;;;9.21;100.00;97332.56;4995298;28;20487;-78
2023/04/02 02:40:04;;;;;;;2.87;1.00;;;8.70;99.90;;;9.20;100.00;97349.22;4987539;28;20511;-78
2023/04/02 02:42:39;;;;;;;4.73;0.93;;;8.70;99.90;;;9.21;100.00;97354.22;4991254;28;20498;-78
2023/04/02 02:45:19;;;;;;;1.20;1.10;;;8.70;99.90;;;9.23;100.00;97351.44;4987648;28;20992;-78
2023/04/02 02:47:53;;;;;;;6.23;1.20;;;8.70;99.90;;;9.24;100.00;97353.84;4985633;28;20463;-78
2023/04/02 02:50:27;;;;;;;1.67;1.10;;;8.70;99.90;;;9.23;100.00;97357.47;4977414;28;20522;-78
2023/04/02 02:52:59;;;;;;;3.53;1.07;;;8.70;99.90;;;9.21;100.00;97358.63;4989058;28;20456;-78
2023/04/02 02:55:33;;;;;;;1.43;1.17;;;8.70;99.90;;;9.21;100.00;97362.06;4990736;28;20476;-78
2023/04/02 02:58:08;;;;;;;13.83;1.20;;;8.70;99.90;;;9.20;100.00;97368.25;4977779;28;20970;-78
2023/04/02 03:00:39;;;;;;;2.50;1.20;;;8.70;99.90;;;9.21;100.00;97374.28;4991731;28;20459;-78
2023/04/02 03:03:16;;;;;;;2.40;1.07;;;8.70;99.90;;;9.20;100.00;97373.47;4991522;28;20479;-78
2023/04/02 03:05:53;;;;;;;1.30;0.90;;;8.70;99.90;;;9.19;100.00;97374.50;4987902;28;20464;-78
2023/04/02 03:08:30;;;;;;;1.77;1.40;;;8.70;99.90;;;9.19;100.00;97376.28;4984760;28;20887;-78
2023/04/02 03:11:08;;;;;;;1.90;1.00;;;8.70;99.90;;;9.20;100.00;97381.31;4976582;28;20497;-78
2023/04/02 03:13:45;;;;;;;1.03;0.93;;;8.70;99.90;;;9.19;100.00;97379.72;4985943;28;20459;-78
2023/04/02 03:16:24;;;;;;;1.60;1.33;;;8.70;99.90;;;9.19;100.00;97386.72;4985310;28;20474;-77
2023/04/02 03:19:02;;;;;;;1.10;1.00;;;8.70;99.90;;;9.19;100.00;97392.75;4974725;28;20525;-78
2023/04/02 03:21:39;;;;;;;1.20;1.00;;;8.70;99.90;;;9.19;100.00;97390.16;4987526;28;20460;-78
2023/04/02 03:24:19;;;;;;;9.63;1.20;;;8.70;99.90;;;9.19;100.00;97397.16;4988460;28;20542;-79
2023/04/02 03:26:56;;;;;;;1.00;0.90;;;8.70;99.90;;;9.18;100.00;97406.78;4985542;28;21051;-78
2023/04/02 03:29:29;;;;;;;1.33;1.23;;;8.70;99.90;;;9.19;100.00;97402.38;4985965;28;20460;-78
2023/04/02 03:32:05;;;;;;;2.13;1.20;;;8.70;99.90;;;9.17;100.00;97401.75;4984199;28;20587;-78
2023/04/02 03:34:43;;;;;;;1.47;1.27;;;8.70;99.90;;;9.15;100.00;97403.75;4977039;28;20506;-77
2023/04/02 03:37:22;;;;;;;1.20;1.10;;;8.70;99.90;;;9.12;100.00;97407.56;4993064;28;20590;-78
2023/04/02 03:40:03;;;;;;;1.30;1.20;;;8.60;99.90;;;9.14;100.00;97410.78;4982043;28;20487;-78
2023/04/02 03:42:44;;;;;;;1.20;1.10;;;8.60;99.90;;;9.14;100.00;97416.00;4987387;28;20567;-78
2023/04/02 03:45:20;;;;;;;1.20;1.07;;;8.70;99.90;;;9.13;100.00;97416.97;4986244;28;20480;-78
2023/04/02 03:47:56;;;;;;;1.37;1.10;;;8.70;99.90;;;9.13;100.00;97416.97;4982849;28;20453;-78
2023/04/02 03:50:34;;;;;;;1.20;1.10;;;8.60;99.90;;;9.15;100.00;97427.25;4982453;28;20488;-78
2023/04/02 03:53:05;;;;;;;1.10;1.00;;;8.70;99.90;;;9.13;100.00;97419.59;4982871;28;20839;-78
2023/04/02 03:55:38;;;;;;;1.20;1.10;;;8.70;99.90;;;9.13;100.00;97430.03;4989749;28;21325;-78
2023/04/02 03:58:18;;;;;;;1.33;1.23;;;8.60;99.90;;;9.15;100.00;97432.44;4993100;28;20464;-78
2023/04/02 04:00:57;;;;;;;2.50;1.30;;;8.60;99.90;;;9.17;100.00;97440.88;4979680;28;20883;-78
2023/04/02 04:03:37;;;;;;;2.20;1.00;;;8.60;99.90;;;9.18;100.00;97445.91;4968329;28;20464;-75
2023/04/02 04:06:16;;;;;;;3.30;2.03;;;8.60;99.90;;;9.16;100.00;97450.53;4985805;28;20484;-78
2023/04/02 04:08:58;;;;;;;1.00;0.90;;;8.70;99.90;;;9.14;100.00;97455.13;4982442;28;20525;-78
2023/04/02 04:11:34;;;;;;;1.10;1.00;;;8.70;99.90;;;9.14;100.00;97452.50;4978021;28;20500;-78
2023/04/02 04:14:13;;;;;;;1.30;1.13;;;8.70;99.90;;;9.14;100.00;97449.91;4990970;28;20473;-78
2023/04/02 04:16:52;;;;;;;1.60;1.50;;;8.70;99.90;;;9.12;100.00;97458.91;4983650;28;20473;-78
2023/04/02 04:19:31;;;;;;;3.37;1.10;;;8.70;99.90;;;9.09;100.00;97466.13;4989589;28;20517;-79
2023/04/02 04:22:16;;;;;;;1.47;1.27;;;8.70;99.90;;;9.11;100.00;97471.16;4992101;28;20994;-78
2023/04/02 04:24:47;;;;;;;3.10;0.90;;;8.60;99.90;;;9.12;100.00;97478.00;4991922;28;20510;-78
2023/04/02 04:27:32;;;;;;;1.10;1.00;;;8.60;99.90;;;9.13;100.00;97476.19;4983599;28;20469;-78
2023/04/02 04:30:17;;;;;;;2.70;1.27;;;8.70;99.90;;;9.09;100.00;97483.59;4991487;28;20468;-78
2023/04/02 04:32:56;;;;;;;1.20;1.00;;;8.70;99.90;;;9.10;100.00;97485.19;4988550;28;20987;-79
2023/04/02 04:35:32;;;;;;;1.60;1.27;;;8.60;99.90;;;9.12;100.00;97488.41;4986051;28;20477;-78
2023/04/02 04:38:13;;;;;;;1.53;1.20;;;8.60;99.90;;;9.12;100.00;97496.25;4985010;28;21055;-78
2023/04/02 04:40:52;;;;;;;4.47;1.30;;;8.70;99.90;;;9.14;100.00;97499.47;4983174;28;20495;-78
2023/04/02 04:43:43;;;;;;;8.03;1.30;;;8.60;99.90;;;9.14;100.00;97499.47;4985466;28;20467;-79
2023/04/02 04:46:21;;;;;;;1.60;1.50;;;8.60;99.90;;;9.15;100.00;97500.25;4991719;28;20474;-78
2023/04/02 04:48:59;;;;;;;1.67;1.47;;;8.70;99.90;;;9.15;100.00;97501.06;4977115;28;20843;-78
2023/04/02 04:51:39;;;;;;;1.90;1.40;;;8.70;99.90;;;9.15;100.00;97508.91;4985773;28;20539;-78
2023/04/02 04:54:14;;;;;;;2.23;1.67;;;8.70;99.90;;;9.17;100.00;97501.69;4987926;28;20589;-79
2023/04/02 04:56:50;;;;;;;2.10;1.83;;;8.70;99.90;;;9.19;100.00;97520.56;4991698;28;20461;-78
2023/04/02 04:59:26;;;;;;;2.93;1.80;;;8.60;99.90;;;9.20;100.00;97518.78;4989072;28;20954;-78
2023/04/02 05:02:03;;;;;;;3.67;1.67;;;8.70;99.90;;;9.21;100.00;97518.56;4968355;28;20467;-74
2023/04/02 05:04:39;;;;;;;6.33;2.40;;;8.70;99.90;;;9.22;100.00;97522.78;4963900;28;20461;-78
2023/04/02 05:07:13;;;;;;;2.33;2.13;;;8.70;99.90;;;9.23;100.00;97534.84;4966239;28;20929;-79
2023/04/02 05:09:56;;;;;;;3.60;2.40;;;8.70;99.90;;;9.23;100.00;97534.84;4964721;28;20483;-79
2023/04/02 05:12:36;;;;;;;5.10;3.30;;;8.70;99.90;;;9.23;100.00;97534.84;4963669;28;21050;-78
2023/04/02 05:15:17;;;;;;;4.37;3.57;;;8.70;99.90;;;9.23;100.00;97545.28;4962987;28;20456;-78
2023/04/02 05:17:53;;;;;;;3.47;3.17;;;8.70;99.90;;;9.21;100.00;97544.66;4960727;28;20472;-78
2023/04/02 05:20:29;;;;;;;3.77;3.37;;;8.70;99.90;;;9.19;100.00;97546.66;4964143;28;20983;-78
2023/04/02 05:23:10;;;;;;;6.13;2.83;;;8.70;99.90;;;9.18;100.00;97552.06;4964915;28;20469;-79
2023/04/02 05:25:55;;;;;;;7.93;2.43;;;8.70;99.90;;;9.16;100.00;97552.25;4960342;28;21014;-79
2023/04/02 05:28:34;;;;;;;2.37;2.17;;;8.70;99.90;;;9.15;100.00;97558.47;4960546;28;20492;-78
2023/04/02 05:31:12;;;;;;;2.13;1.93;;;8.70;99.90;;;9.16;100.00;97565.31;4958765;28;20492;-78
2023/04/02 05:33:49;;;;;;;2.73;2.17;;;8.70;99.90;;;9.18;100.00;97568.50;4961848;28;20480;-79
2023/04/02 05:36:36;;;;;;;2.10;1.90;;;8.70;99.90;;;9.20;100.00;97576.94;4977543;28;20909;-78
2023/04/02 05:39:10;;;;;;;2.03;1.90;;;8.70;99.90;;;9.21;100.00;97578.56;4978980;28;20563;-78
2023/04/02 05:41:50;;;;;;;7.33;2.13;;;8.70;99.90;;;9.21;100.00;97580.34;4982158;28;20552;-78
2023/04/02 05:44:27;;;;;;;2.97;2.30;;;8.70;99.90;;;9.21;100.00;97573.34;4975787;28;20986;-78
2023/04/02 05:47:03;;;;;;;2.20;2.00;;;8.70;99.90;;;9.22;100.00;97588.00;4979571;28;20476;-78
2023/04/02 05:49:44;;;;;;;1.73;1.63;;;8.70;99.90;;;9.22;100.00;97590.63;4972935;28;20522;-78
2023/04/02 05:52:22;;;;;;;4.00;2.33;;;8.70;99.90;;;9.24;100.00;97593.84;4977593;28;20495;-79
2023/04/02 05:55:01;;;;;;;2.30;2.10;;;8.60;99.90;;;9.27;100.00;97598.66;4985190;28;20460;-79
2023/04/02 05:57:37;;;;;;;2.20;2.00;;;8.70;99.90;;;9.28;100.00;97595.06;4978865;28;20551;-79
2023/04/02 06:00:42;;;;;;;1.93;1.83;;;8.70;99.90;;;9.28;100.00;97600.28;4971674;28;20471;-79
2023/04/02 06:03:26;;;;;;;4.27;2.30;;;8.80;99.90;;;9.29;100.00;97601.91;4978949;28;20464;-78
2023/04/02 06:06:03;;;;;;;2.23;2.03;;;8.80;99.90;;;9.29;100.00;97609.75;4990620;28;20479;-78
2023/04/02 06:08:40;;;;;;;3.70;2.30;;;8.80;99.90;;;9.30;100.00;97613.94;4978715;28;21084;-79
2023/04/02 06:11:18;;;;;;;3.57;2.57;;;8.80;99.90;;;9.29;100.00;97616.75;4969640;28;20492;-79
2023/04/02 06:13:48;;;;;;;9.03;4.93;;;8.80;99.90;;;9.32;100.00;97624.19;4989267;28;20463;-79
2023/04/02 06:16:25;;;;;;;2.73;2.53;;;8.80;99.90;;;9.33;100.00;97626.63;4990864;28;20526;-79
2023/04/02 06:18:57;;;;;;;2.60;2.30;;;8.80;99.90;;;9.33;100.00;97631.84;4980473;28;21331;-78
2023/04/02 06:21:27;;;;;;;3.23;2.47;;;8.90;99.90;;;9.36;100.00;97639.28;4976478;28;20529;-78
2023/04/02 06:24:03;;;;;;;4.63;2.30;;;8.80;99.90;;;9.39;100.00;97646.75;4982779;28;21009;-79
2023/04/02 06:26:38;;;;;;;2.77;2.47;;;8.90;99.90;;;9.39;100.00;97649.34;4984858;28;20471;-74
2023/04/02 06:29:21;;;;;;;3.77;2.67;;;8.90;99.90;;;9.41;100.00;97655.19;4972599;28;20498;-79
2023/04/02 06:31:58;;;;;;;4.83;4.07;;;8.90;99.90;;;9.42;100.00;97658.59;4978314;28;20504;-78
2023/04/02 06:34:31;;;;;;;4.60;2.53;;;8.90;99.90;;;9.44;100.00;97662.63;4976088;28;20474;-78
2023/04/02 06:37:05;;;;;;;5.10;3.50;;;8.90;99.90;;;9.45;100.00;97666.84;4972520;28;20471;-78
2023/04/02 06:39:34;;;;;;;1.90;1.80;;;8.90;99.90;;;9.47;100.00;97669.28;4979715;28;20471;-79
2023/04/02 06:42:11;;;;;;;2.53;1.83;;;8.90;99.90;;;9.48;100.00;97678.72;4987378;28;20472;-79
2023/04/02 06:44:43;;;;;;;4.00;1.93;;;8.90;99.90;;;9.49;100.00;97681.13;4982645;28;20846;-79
2023/04/02 06:47:26;;;;;;;2.23;2.03;;;9.00;99.90;;;9.51;100.00;97689.56;4982535;28;21128;-78
2023/04/02 06:50:06;;;;;;;6.20;3.40;;;9.00;99.90;;;9.52;100.00;97693.81;4988307;28;20464;-79
2023/04/02 06:52:44;;;;;;;6.73;2.80;;;8.90;99.90;;;9.52;100.00;97695.59;4981786;28;20586;-78
2023/04/02 06:55:36;;;;;;;3.00;1.80;;;9.00;99.90;;;9.55;100.00;97701.25;4975355;28;20463;-79
2023/04/02 06:58:08;;;;;;;2.10;1.73;;;9.10;99.90;;;9.57;100.00;97712.34;4989901;28;20851;-79
2023/04/02 07:00:44;;;;;;;3.03;1.90;;;9.10;99.90;;;9.57;100.00;97717.56;4984152;28;20470;-79
2023/04/02 07:03:20;;;;;;;2.30;2.10;;;9.10;99.90;;;9.58;100.00;97716.53;4969517;28;20838;-79
2023/04/02 07:05:51;;;;;;;2.37;1.90;;;9.10;99.90;;;9.60;100.00;97725.00;4968596;28;20547;-79
2023/04/02 07:08:20;;;;;;;2.13;1.93;;;9.10;99.90;;;9.61;100.00;97731.81;4964194;28;20968;-78
2023/04/02 07:10:51;;;;;;;2.17;1.60;;;9.20;99.90;;;9.64;100.00;97735.06;4963232;28;20538;-79
2023/04/02 07:13:23;;;;;;;2.43;1.90;;;9.20;99.90;;;9.65;100.00;97741.91;4962622;28;20607;-79
2023/04/02 07:15:56;;;;;;;2.03;1.83;;;9.20;99.90;;;9.66;100.00;97744.31;4964398;28;20499;-79
2023/04/02 07:18:28;;;;;;;2.60;2.10;;;9.20;99.90;;;9.67;100.00;97751.16;4964811;28;20463;-78
2023/04/02 07:20:59;;;;;;;3.00;2.00;;;9.20;99.90;;;9.69;100.00;97756.19;4981827;28;20526;-78
2023/04/02 07:23:29;;;;;;;2.80;1.70;;;9.20;99.90;;;9.70;100.00;97763.03;4991108;28;20536;-79
2023/04/02 07:26:01;;;;;;;1.43;1.33;;;9.20;99.90;;;9.70;100.00;97765.63;4986898;28;20488;-78
2023/04/02 07:28:30;;;;;;;1.43;1.20;;;9.20;99.90;;;9.71;100.00;97768.06;4979318;28;20484;-79
2023/04/02 07:31:01;;;;;;;1.73;1.43;;;9.20;99.90;;;9.73;100.00;97768.69;4979196;28;20497;-79
2023/04/02 07:33:32;;;;;;;1.40;1.30;;;9.20;99.90;;;9.72;100.00;97769.66;4985245;28;20507;-80
2023/04/02 07:36:01;;;;;;;1.73;1.30;;;9.20;99.90;;;9.72;100.00;97774.09;4978220;28;20468;-78
2023/04/02 07:38:31;;;;;;;1.30;1.20;;;9.30;99.90;;;9.74;100.00;97787.75;4981710;28;20495;-78
2023/04/02 07:41:06;;;;;;;0.97;0.97;;;9.30;99.90;;;9.75;100.00;97784.16;4986608;28;20536;-78
2023/04/02 07:43:37;;;;;;;1.10;0.87;;;9.20;99.90;;;9.77;100.00;97787.38;4977769;28;20856;-78
2023/04/02 07:46:08;;;;;;;0.80;0.80;;;9.20;99.90;;;9.77;100.00;97782.16;4979530;28;20480;-78
2023/04/02 07:48:37;;;;;;;1.17;1.07;;;9.30;99.90;;;9.78;100.00;97791.63;4986188;28;20682;-78
2023/04/02 07:51:15;;;;;;;2.10;0.90;;;9.30;99.90;;;9.76;100.00;97797.03;4985783;28;20477;-76
2023/04/02 07:53:48;;;;;;;2.70;1.30;;;9.30;99.90;;;9.78;100.00;97804.69;4978899;28;20491;-79
2023/04/02 07:56:19;;;;;;;1.10;1.00;;;9.30;99.90;;;9.82;100.00;97816.38;4987562;28;20471;-78
2023/04/02 07:58:49;;;;;;;0.80;0.77;;;9.30;99.90;;;9.87;100.00;97819.22;4980143;28;20971;-78
2023/04/02 08:01:24;;;;;;;0.93;0.93;;;9.30;99.90;;;9.93;100.00;97823.66;4983106;28;20480;-79
2023/04/02 08:03:55;;;;;;;4.40;3.17;;;9.40;99.90;;;9.95;100.00;97830.34;4987915;28;20554;-79
2023/04/02 08:06:26;;;;;;;3.47;2.40;;;9.40;99.90;;;9.98;100.00;97834.38;4988396;28;20480;-79
2023/04/02 08:08:55;;;;;;;2.77;1.07;;;9.40;99.90;;;10.00;100.00;97835.81;4987007;28;20470;-80
2023/04/02 08:11:25;;;;;;;1.77;1.57;;;9.50;99.90;;;10.04;100.00;97841.47;4988172;28;20479;-79
2023/04/02 08:13:54;;;;;;;9.33;1.40;;;9.50;99.90;;;10.08;100.00;97832.25;5000020;28;20600;-78
2023/04/02 08:16:26;;;;;;;1.40;1.17;;;9.50;99.90;;;10.10;100.00;97848.53;4990762;28;20490;-78
2023/04/02 08:18:56;;;;;;;3.20;1.27;;;9.60;99.90;;;10.13;100.00;97852.59;4980972;28;20813;-78
2023/04/02 08:21:25;;;;;;;1.10;1.00;;;9.70;99.90;;;10.14;100.00;97855.03;4984746;28;20584;-78
2023/04/02 08:23:55;;;;;;;1.37;1.27;;;9.60;99.90;;;10.14;100.00;97857.63;4976647;28;20500;-78
2023/04/02 08:26:25;;;;;;;5.60;1.40;;;9.60;99.90;;;10.13;100.00;97866.47;4990319;28;20469;-78
2023/04/02 08:28:55;;;;;;;2.20;1.20;;;9.70;99.90;;;10.15;100.00;97864.50;4985392;28;20970;-78
2023/04/02 08:31:26;;;;;;;1.33;1.23;;;9.60;99.90;;;10.19;100.00;97870.97;4984206;28;20546;-78
2023/04/02 08:33:55;;;;;;;1.20;1.00;;;9.70;99.90;;;10.24;100.00;97876.41;4986220;28;20545;-79
2023/04/02 08:36:33;;;;;;;1.30;0.97;;;9.70;99.90;;;10.28;100.00;97885.50;4983003;28;20517;-78
2023/04/02 08:39:03;;;;;;;1.00;0.90;;;9.70;99.90;;;10.31;100.00;97882.50;4988900;28;20977;-78
2023/04/02 08:41:42;;;;;;;4.90;1.63;;;9.70;99.90;;;10.34;100.00;97884.75;4991514;28;20464;-78
2023/04/02 08:44:41;;;;;;;1.40;1.30;;;9.80;99.90;;;10.39;100.00;97882.38;4983582;28;20464;-78
2023/04/02 08:47:17;;;;;;;1.47;1.33;;;9.90;99.90;;;10.43;100.00;97899.31;4984378;28;20468;-78
2023/04/02 08:49:56;;;;;;;2.10;1.33;;;10.00;99.90;;;10.45;100.00;97899.09;4987290;28;20484;-78
2023/04/02 08:52:30;;;;;;;1.83;1.57;;;9.90;99.90;;;10.44;100.00;97906.16;4984019;28;20562;-78
2023/04/02 08:55:01;;;;;;;1.63;1.50;;;9.90;99.90;;;10.44;100.00;97906.16;4983123;28;20550;-78
2023/04/02 08:57:46;;;;;;;1.67;1.40;;;9.90;99.90;;;10.48;100.00;97904.75;4980774;28;20959;-78
2023/04/02 09:00:34;;;;;;;1.60;1.50;;;9.90;99.90;;;10.46;100.00;97914.59;4993088;28;20518;-78
2023/04/02 09:03:17;;;;;;;1.40;1.30;;;10.00;99.90;;;10.40;100.00;97919.78;4983068;28;20465;-78
2023/04/02 09:05:50;;;;;;;1.50;1.40;;;9.90;99.90;;;10.42;100.00;97918.59;4981157;28;20469;-78
2023/04/02 09:08:23;;;;;;;1.53;1.30;;;10.00;99.90;;;10.41;100.00;97932.66;4979508;28;20492;-78
2023/04/02 09:11:00;;;;;;;1.60;1.50;;;9.90;99.90;;;10.39;100.00;97929.44;4980966;28;20513;-78
2023/04/02 09:13:36;;;;;;;1.80;1.70;;;9.90;99.90;;;10.43;100.00;97935.09;4989515;28;20468;-78
2023/04/02 09:16:12;;;;;;;3.77;1.60;;;9.90;99.90;;;10.47;100.00;97942.38;4986285;28;20459;-78
2023/04/02 09:18:46;;;;;;;1.93;1.70;;;10.00;99.90;;;10.48;100.00;97948.41;4983708;28;21209;-78
2023/04/02 09:21:33;;;;;;;1.73;1.57;;;10.10;99.90;;;10.47;100.00;97950.22;4985822;28;20884;-78
2023/04/02 09:24:03;;;;;;;1.43;1.33;;;10.00;99.90;;;10.48;100.00;97949.19;4996785;28;20459;-78
2023/04/02 09:26:34;;;;;;;1.90;1.80;;;10.00;99.90;;;10.50;100.00;97962.91;4988711;28;20464;-78
2023/04/02 09:29:46;;;;;;;4.23;2.00;;;10.00;99.90;;;10.48;100.00;97964.88;4990777;28;20468;-78
2023/04/02 09:32:49;;;;;;;3.07;2.30;;;10.00;99.90;;;10.53;100.00;97962.53;4982984;28;20475;-78
2023/04/02 09:35:24;;;;;;;2.30;1.53;;;10.00;99.90;;;10.56;100.00;97977.84;4983690;28;21044;-78
2023/04/02 09:38:21;;;;;;;1.87;1.77;;;10.00;99.90;;;10.61;100.00;97979.88;4980628;28;21080;-78
2023/04/02 09:40:58;;;;;;;5.23;1.60;;;10.10;99.90;;;10.64;100.00;97973.47;4986858;28;20551;-77
2023/04/02 09:43:29;;;;;;;1.90;1.80;;;10.10;99.90;;;10.67;100.00;97988.78;4991390;28;20529;-77
2023/04/02 09:46:02;;;;;;;1.43;1.33;;;10.10;99.90;;;10.63;100.00;97995.38;4976377;28;20553;-77
2023/04/02 09:48:36;;;;;;;1.20;1.10;;;10.00;99.90;;;10.55;100.00;97996.34;4984624;28;20525;-78
2023/04/02 09:51:15;;;;;;;1.20;1.10;;;9.90;99.90;;;10.51;100.00;98006.34;4983029;28;20572;-78
2023/04/02 09:53:47;;;;;;;1.00;0.90;;;9.90;99.90;;;10.46;100.00;98011.31;4984850;28;20532;-78
2023/04/02 09:56:20;;;;;;;1.03;0.87;;;9.90;99.90;;;10.44;100.00;98013.34;4993236;28;20452;-77
2023/04/02 09:59:04;;;;;;;0.80;0.80;;;9.80;99.90;;;10.48;100.00;98027.63;4976653;28;20467;-78
2023/04/02 10:01:36;;;;;;;1.43;1.00;;;9.80;99.90;;;10.45;100.00;98019.34;4984145;28;20839;-77
2023/04/02 10:04:27;;;;;;;1.87;0.90;;;9.80;99.90;;;10.42;100.00;98023.16;4991446;28;21037;-77
2023/04/02 10:06:58;;;;;;;0.80;0.80;;;9.80;99.90;;;10.40;100.00;98032.19;4987902;28;20954;-77
2023/04/02 10:09:31;;;;;;;1.50;0.90;;;9.80;99.90;;;10.38;100.00;98042.81;4982970;28;20467;-78
2023/04/02 10:12:02;;;;;;;1.93;1.30;;;9.70;99.90;;;10.35;100.00;98047.59;4983885;28;20480;-78
2023/04/02 10:14:38;;;;;;;1.00;0.70;;;9.70;99.90;;;10.34;100.00;98054.66;4998117;28;20535;-78
2023/04/02 10:17:17;;;;;;;0.93;0.93;;;9.60;99.90;;;10.37;100.00;98056.91;4989410;28;20466;-79
2023/04/02 10:19:53;;;;;;;1.00;0.90;;;9.70;99.90;;;10.39;100.00;98064.53;4993861;28;20454;-78
2023/04/02 10:22:24;;;;;;;1.23;1.13;;;9.80;99.90;;;10.36;100.00;98065.72;4983417;28;20532;-78
2023/04/02 10:24:54;;;;;;;1.20;1.10;;;9.80;99.90;;;10.39;100.00;98075.81;4989339;28;20479;-79
2023/04/02 10:27:36;;;;;;;0.80;0.80;;;9.80;99.90;;;10.31;100.00;98081.13;4977705;28;21065;-78
2023/04/02 10:30:19;;;;;;;1.63;0.93;;;9.70;99.90;;;10.29;100.00;98088.34;4976009;28;20506;-78
2023/04/02 10:32:57;;;;;;;0.80;0.80;;;9.70;99.90;;;10.32;100.00;98088.00;4983995;28;20465;-78
2023/04/02 10:35:42;;;;;;;1.00;0.90;;;9.70;99.90;;;10.28;100.00;98093.75;4973675;28;20872;-78
2023/04/02 10:38:41;;;;;;;1.10;1.00;;;9.70;99.90;;;10.11;100.00;98087.91;4978231;28;20572;-78
2023/04/02 10:41:29;;;;;;;1.10;1.00;;;9.50;99.90;;;10.10;100.00;98100.16;4979285;28;20461;-78
2023/04/02 10:44:28;;;;;;;1.00;0.90;;;9.50;99.90;;;10.03;100.00;98117.56;4979424;28;20475;-78
2023/04/02 10:47:25;;;;;;;1.20;1.10;;;9.50;99.90;;;10.02;100.00;98113.34;4981614;28;20460;-79
2023/04/02 10:50:30;;;;;;;1.40;1.00;;;9.50;99.90;;;10.08;100.00;98111.78;4979834;28;20472;-78
2023/04/02 10:53:14;;;;;;;1.00;0.90;;;9.60;99.90;;;10.04;100.00;98123.59;4981549;28;20468;-78
2023/04/02 10:55:52;;;;;;;1.27;0.93;;;9.50;99.90;;;10.03;100.00;98124.59;4982481;28;20536;-78
2023/04/02 10:58:26;;;;;;;0.80;0.80;;;9.50;99.90;;;9.97;100.00;98128.72;4985397;28;20473;-77
2023/04/02 11:01:03;;;;;;;0.80;0.80;;;9.40;99.90;;;10.02;100.00;98136.84;4978304;28;20459;-78
2023/04/02 11:03:40;;;;;;;1.47;0.90;;;9.50;99.90;;;10.05;100.00;98138.28;4985912;28;20547;-78
2023/04/02 11:06:20;;;;;;;0.80;0.73;;;9.40;99.90;;;10.14;100.00;98155.50;4983889;28;20460;-78